sensor_id;sensor_type;location;lat;lon;timestamp;pressure;altitude;pressure_sealevel;temperature;humidity
15932;BME280;8065;49.520;11.284;2023-04-04T00:01:40;98436.34;;;5.87;56.71
15932;BME280;8065;49.520;11.284;2023-04-04T00:04:07;98433.19;;;5.95;56.66
15932;BME280;8065;49.520;11.284;2023-04-04T00:06:33;98432.63;;;5.83;56.62
15932;BME280;8065;49.520;11.284;2023-04-04T00:09:01;98432.63;;;5.63;57.50
15932;BME280;8065;49.520;11.284;2023-04-04T00:11:27;98435.50;;;5.56;57.96
15932;BME280;8065;49.520;11.284;2023-04-04T00:13:54;98423.38;;;5.65;57.82
15932;BME280;8065;49.520;11.284;2023-04-04T00:16:20;98425.25;;;5.65;57.88
15932;BME280;8065;49.520;11.284;2023-04-04T00:18:47;98422.59;;;5.70;57.79
15932;BME280;8065;49.520;11.284;2023-04-04T00:21:14;98427.88;;;5.75;57.86
15932;BME280;8065;49.520;11.284;2023-04-04T00:23:41;98423.66;;;5.58;57.95
15932;BME280;8065;49.520;11.284;2023-04-04T00:26:08;98419.66;;;5.41;58.27
15932;BME280;8065;49.520;11.284;2023-04-04T00:28:35;98416.22;;;5.40;57.20
15932;BME280;8065;49.520;11.284;2023-04-04T00:31:01;98412.25;;;5.27;56.33
15932;BME280;8065;49.520;11.284;2023-04-04T00:33:28;98413.56;;;5.20;55.86
15932;BME280;8065;49.520;11.284;2023-04-04T00:35:54;98410.34;;;4.98;55.49
15932;BME280;8065;49.520;11.284;2023-04-04T00:38:21;98404.34;;;5.17;54.42
15932;BME280;8065;49.520;11.284;2023-04-04T00:40:48;98411.91;;;4.93;55.44
15932;BME280;8065;49.520;11.284;2023-04-04T00:43:17;98411.13;;;4.98;55.06
15932;BME280;8065;49.520;11.284;2023-04-04T00:45:45;98412.22;;;5.07;54.69
15932;BME280;8065;49.520;11.284;2023-04-04T00:48:12;98406.53;;;4.73;54.24
15932;BME280;8065;49.520;11.284;2023-04-04T00:50:38;98405.94;;;4.56;53.93
15932;BME280;8065;49.520;11.284;2023-04-04T00:53:05;98412.81;;;4.62;53.92
15932;BME280;8065;49.520;11.284;2023-04-04T00:55:32;98410.25;;;4.77;53.28
15932;BME280;8065;49.520;11.284;2023-04-04T00:57:59;98403.69;;;4.80;52.70
15932;BME280;8065;49.520;11.284;2023-04-04T01:00:27;98405.63;;;5.10;52.67
15932;BME280;8065;49.520;11.284;2023-04-04T01:02:53;98403.56;;;5.17;53.25
15932;BME280;8065;49.520;11.284;2023-04-04T01:05:20;98397.19;;;5.08;52.38
15932;BME280;8065;49.520;11.284;2023-04-04T01:07:46;98394.06;;;5.16;52.78
15932;BME280;8065;49.520;11.284;2023-04-04T01:10:13;98400.38;;;5.10;51.91
15932;BME280;8065;49.520;11.284;2023-04-04T01:12:40;98392.72;;;5.08;52.64
15932;BME280;8065;49.520;11.284;2023-04-04T01:15:08;98394.03;;;5.06;51.94
15932;BME280;8065;49.520;11.284;2023-04-04T01:17:36;98392.47;;;5.15;53.09
15932;BME280;8065;49.520;11.284;2023-04-04T01:20:05;98385.09;;;5.07;52.60
15932;BME280;8065;49.520;11.284;2023-04-04T01:22:32;98388.78;;;5.16;52.37
15932;BME280;8065;49.520;11.284;2023-04-04T01:25:02;98388.00;;;5.20;52.84
15932;BME280;8065;49.520;11.284;2023-04-04T01:27:31;98390.84;;;4.93;53.66
15932;BME280;8065;49.520;11.284;2023-04-04T01:29:57;98386.66;;;5.03;53.40
15932;BME280;8065;49.520;11.284;2023-04-04T01:32:27;98387.06;;;4.74;53.88
15932;BME280;8065;49.520;11.284;2023-04-04T01:35:01;98386.41;;;4.47;55.39
15932;BME280;8065;49.520;11.284;2023-04-04T01:37:35;98383.28;;;4.50;55.20
15932;BME280;8065;49.520;11.284;2023-04-04T01:40:06;98383.25;;;4.45;55.80
15932;BME280;8065;49.520;11.284;2023-04-04T01:42:35;98382.44;;;4.44;55.40
15932;BME280;8065;49.520;11.284;2023-04-04T01:45:05;98386.59;;;4.30;55.86
15932;BME280;8065;49.520;11.284;2023-04-04T01:47:37;98383.66;;;4.21;56.76
15932;BME280;8065;49.520;11.284;2023-04-04T01:50:04;98381.34;;;4.30;56.91
15932;BME280;8065;49.520;11.284;2023-04-04T01:52:31;98385.22;;;4.17;56.27
15932;BME280;8065;49.520;11.284;2023-04-04T01:54:58;98387.25;;;4.10;56.46
15932;BME280;8065;49.520;11.284;2023-04-04T01:57:25;98379.63;;;3.72;57.95
15932;BME280;8065;49.520;11.284;2023-04-04T01:59:52;98371.16;;;3.65;59.34
15932;BME280;8065;49.520;11.284;2023-04-04T02:02:19;98374.72;;;3.53;59.30
15932;BME280;8065;49.520;11.284;2023-04-04T02:04:45;98369.00;;;3.61;59.37
15932;BME280;8065;49.520;11.284;2023-04-04T02:07:13;98372.06;;;3.48;60.53
15932;BME280;8065;49.520;11.284;2023-04-04T02:09:39;98371.00;;;3.49;59.43
15932;BME280;8065;49.520;11.284;2023-04-04T02:12:06;98356.34;;;3.53;58.68
15932;BME280;8065;49.520;11.284;2023-04-04T02:14:33;98361.97;;;3.35;59.10
15932;BME280;8065;49.520;11.284;2023-04-04T02:17:01;98367.81;;;3.42;59.84
15932;BME280;8065;49.520;11.284;2023-04-04T02:19:28;98365.19;;;3.42;58.61
15932;BME280;8065;49.520;11.284;2023-04-04T02:21:54;98362.53;;;3.37;58.72
15932;BME280;8065;49.520;11.284;2023-04-04T02:24:21;98356.28;;;3.43;57.90
15932;BME280;8065;49.520;11.284;2023-04-04T02:26:48;98363.91;;;3.18;59.66
15932;BME280;8065;49.520;11.284;2023-04-04T02:29:14;98361.53;;;3.43;57.97
15932;BME280;8065;49.520;11.284;2023-04-04T02:31:41;98362.94;;;3.24;58.63
15932;BME280;8065;49.520;11.284;2023-04-04T02:34:09;98368.13;;;3.19;59.89
15932;BME280;8065;49.520;11.284;2023-04-04T02:36:35;98361.34;;;3.23;59.47
15932;BME280;8065;49.520;11.284;2023-04-04T02:39:02;98353.59;;;3.11;58.31
15932;BME280;8065;49.520;11.284;2023-04-04T02:41:30;98353.75;;;3.00;58.99
15932;BME280;8065;49.520;11.284;2023-04-04T02:43:56;98357.53;;;2.87;60.17
15932;BME280;8065;49.520;11.284;2023-04-04T02:46:22;98356.19;;;2.84;61.46
15932;BME280;8065;49.520;11.284;2023-04-04T02:48:49;98357.06;;;2.68;62.14
15932;BME280;8065;49.520;11.284;2023-04-04T02:51:17;98353.53;;;2.79;62.35
15932;BME280;8065;49.520;11.284;2023-04-04T02:53:43;98357.06;;;2.68;62.74
15932;BME280;8065;49.520;11.284;2023-04-04T02:56:11;98358.00;;;2.57;62.58
15932;BME280;8065;49.520;11.284;2023-04-04T02:58:37;98354.94;;;2.65;61.92
15932;BME280;8065;49.520;11.284;2023-04-04T03:01:03;98349.38;;;2.61;62.03
15932;BME280;8065;49.520;11.284;2023-04-04T03:03:30;98349.91;;;2.58;61.17
15932;BME280;8065;49.520;11.284;2023-04-04T03:05:57;98349.34;;;2.56;62.09
15932;BME280;8065;49.520;11.284;2023-04-04T03:08:26;98348.88;;;2.64;61.65
15932;BME280;8065;49.520;11.284;2023-04-04T03:10:52;98350.56;;;2.49;61.78
15932;BME280;8065;49.520;11.284;2023-04-04T03:13:18;98346.28;;;2.43;62.47
15932;BME280;8065;49.520;11.284;2023-04-04T03:15:45;98354.88;;;2.38;62.97
15932;BME280;8065;49.520;11.284;2023-04-04T03:18:11;98346.84;;;2.45;63.03
15932;BME280;8065;49.520;11.284;2023-04-04T03:20:38;98345.31;;;2.49;61.88
15932;BME280;8065;49.520;11.284;2023-04-04T03:23:04;98352.47;;;2.53;61.92
15932;BME280;8065;49.520;11.284;2023-04-04T03:25:32;98350.56;;;2.49;62.42
15932;BME280;8065;49.520;11.284;2023-04-04T03:28:06;98348.00;;;2.54;61.95
15932;BME280;8065;49.520;11.284;2023-04-04T03:30:33;98348.84;;;2.59;62.31
15932;BME280;8065;49.520;11.284;2023-04-04T03:33:02;98351.66;;;2.53;60.93
15932;BME280;8065;49.520;11.284;2023-04-04T03:35:31;98350.88;;;2.52;61.97
15932;BME280;8065;49.520;11.284;2023-04-04T03:38:00;98348.09;;;2.64;61.76
15932;BME280;8065;49.520;11.284;2023-04-04T03:40:26;98347.66;;;2.72;60.89
15932;BME280;8065;49.520;11.284;2023-04-04T03:42:54;98346.63;;;2.73;61.46
15932;BME280;8065;49.520;11.284;2023-04-04T03:45:20;98342.34;;;2.67;61.24
15932;BME280;8065;49.520;11.284;2023-04-04T03:47:47;98340.88;;;2.76;60.78
15932;BME280;8065;49.520;11.284;2023-04-04T03:50:13;98336.31;;;2.88;60.46
15932;BME280;8065;49.520;11.284;2023-04-04T03:52:40;98336.84;;;2.90;61.50
15932;BME280;8065;49.520;11.284;2023-04-04T03:55:07;98343.09;;;2.84;62.54
15932;BME280;8065;49.520;11.284;2023-04-04T03:57:34;98352.00;;;2.83;62.02
15932;BME280;8065;49.520;11.284;2023-04-04T04:00:03;98353.56;;;2.84;62.55
15932;BME280;8065;49.520;11.284;2023-04-04T04:02:29;98345.94;;;2.56;62.88
15932;BME280;8065;49.520;11.284;2023-04-04T04:04:56;98350.22;;;2.67;63.59
15932;BME280;8065;49.520;11.284;2023-04-04T04:07:22;98343.88;;;2.63;63.68
15932;BME280;8065;49.520;11.284;2023-04-04T04:09:49;98337.03;;;2.57;65.12
15932;BME280;8065;49.520;11.284;2023-04-04T04:12:15;98350.69;;;2.59;65.39
15932;BME280;8065;49.520;11.284;2023-04-04T04:14:41;98352.63;;;2.47;65.13
15932;BME280;8065;49.520;11.284;2023-04-04T04:17:09;98349.34;;;2.35;65.63
15932;BME280;8065;49.520;11.284;2023-04-04T04:19:36;98352.22;;;2.16;66.31
15932;BME280;8065;49.520;11.284;2023-04-04T04:22:02;98350.94;;;2.19;66.22
15932;BME280;8065;49.520;11.284;2023-04-04T04:24:28;98356.50;;;2.22;65.35
15932;BME280;8065;49.520;11.284;2023-04-04T04:26:55;98355.69;;;2.39;65.11
15932;BME280;8065;49.520;11.284;2023-04-04T04:29:21;98353.13;;;2.44;66.17
15932;BME280;8065;49.520;11.284;2023-04-04T04:31:48;98360.66;;;2.62;67.53
15932;BME280;8065;49.520;11.284;2023-04-04T04:34:17;98352.38;;;2.70;71.77
15932;BME280;8065;49.520;11.284;2023-04-04T04:36:43;98346.63;;;2.73;73.10
15932;BME280;8065;49.520;11.284;2023-04-04T04:39:10;98357.13;;;2.73;69.82
15932;BME280;8065;49.520;11.284;2023-04-04T04:41:36;98351.28;;;2.66;67.96
15932;BME280;8065;49.520;11.284;2023-04-04T04:44:03;98344.44;;;2.65;71.62
15932;BME280;8065;49.520;11.284;2023-04-04T04:46:30;98349.25;;;2.73;66.14
15932;BME280;8065;49.520;11.284;2023-04-04T04:48:57;98349.31;;;2.78;65.61
15932;BME280;8065;49.520;11.284;2023-04-04T04:51:24;98344.63;;;2.80;70.12
15932;BME280;8065;49.520;11.284;2023-04-04T04:53:51;98344.47;;;2.92;67.06
15932;BME280;8065;49.520;11.284;2023-04-04T04:56:18;98350.53;;;2.92;65.16
15932;BME280;8065;49.520;11.284;2023-04-04T04:58:44;98346.38;;;2.96;67.41
15932;BME280;8065;49.520;11.284;2023-04-04T05:01:12;98344.03;;;3.00;66.42
15932;BME280;8065;49.520;11.284;2023-04-04T05:03:39;98343.78;;;3.02;66.87
15932;BME280;8065;49.520;11.284;2023-04-04T05:06:05;98346.16;;;3.03;67.71
15932;BME280;8065;49.520;11.284;2023-04-04T05:08:33;98354.78;;;2.99;67.50
15932;BME280;8065;49.520;11.284;2023-04-04T05:11:00;98342.22;;;3.01;65.78
15932;BME280;8065;49.520;11.284;2023-04-04T05:13:26;98349.25;;;2.95;67.06
15932;BME280;8065;49.520;11.284;2023-04-04T05:15:53;98345.81;;;2.94;69.98
15932;BME280;8065;49.520;11.284;2023-04-04T05:18:19;98346.97;;;3.04;67.38
15932;BME280;8065;49.520;11.284;2023-04-04T05:20:49;98351.00;;;2.89;66.65
15932;BME280;8065;49.520;11.284;2023-04-04T05:23:17;98354.78;;;2.99;65.73
15932;BME280;8065;49.520;11.284;2023-04-04T05:25:47;98354.19;;;2.91;65.60
15932;BME280;8065;49.520;11.284;2023-04-04T05:28:13;98355.81;;;2.97;64.94
15932;BME280;8065;49.520;11.284;2023-04-04T05:30:40;98346.84;;;2.93;65.36
15932;BME280;8065;49.520;11.284;2023-04-04T05:33:07;98353.50;;;3.01;65.55
15932;BME280;8065;49.520;11.284;2023-04-04T05:35:33;98353.19;;;2.97;65.90
15932;BME280;8065;49.520;11.284;2023-04-04T05:38:00;98352.09;;;2.93;65.90
15932;BME280;8065;49.520;11.284;2023-04-04T05:40:27;98348.56;;;3.05;65.42
15932;BME280;8065;49.520;11.284;2023-04-04T05:42:55;98351.22;;;3.10;65.88
15932;BME280;8065;49.520;11.284;2023-04-04T05:45:22;98355.97;;;3.13;64.72
15932;BME280;8065;49.520;11.284;2023-04-04T05:47:48;98358.41;;;3.19;65.00
15932;BME280;8065;49.520;11.284;2023-04-04T05:50:15;98359.25;;;3.25;63.59
15932;BME280;8065;49.520;11.284;2023-04-04T05:52:41;98356.19;;;3.33;63.38
15932;BME280;8065;49.520;11.284;2023-04-04T05:55:08;98363.63;;;3.41;62.54
15932;BME280;8065;49.520;11.284;2023-04-04T05:57:34;98360.50;;;3.44;62.30
15932;BME280;8065;49.520;11.284;2023-04-04T06:00:03;98355.78;;;3.46;62.78
15932;BME280;8065;49.520;11.284;2023-04-04T06:02:30;98365.81;;;3.54;62.98
15932;BME280;8065;49.520;11.284;2023-04-04T06:04:56;98363.00;;;3.66;62.82
15932;BME280;8065;49.520;11.284;2023-04-04T06:07:23;98362.97;;;3.61;61.61
15932;BME280;8065;49.520;11.284;2023-04-04T06:09:49;98362.81;;;3.73;62.27
15932;BME280;8065;49.520;11.284;2023-04-04T06:12:16;98362.34;;;3.81;60.83
15932;BME280;8065;49.520;11.284;2023-04-04T06:14:42;98367.66;;;3.91;60.50
15932;BME280;8065;49.520;11.284;2023-04-04T06:17:10;98362.41;;;3.91;60.49
15932;BME280;8065;49.520;11.284;2023-04-04T06:19:36;98367.13;;;3.89;60.37
15932;BME280;8065;49.520;11.284;2023-04-04T06:22:03;98363.50;;;3.95;60.29
15932;BME280;8065;49.520;11.284;2023-04-04T06:24:29;98363.09;;;4.13;60.42
15932;BME280;8065;49.520;11.284;2023-04-04T06:26:56;98369.06;;;4.04;59.71
15932;BME280;8065;49.520;11.284;2023-04-04T06:29:22;98362.34;;;4.18;59.92
15932;BME280;8065;49.520;11.284;2023-04-04T06:31:50;98363.97;;;4.34;59.36
15932;BME280;8065;49.520;11.284;2023-04-04T06:34:19;98359.03;;;4.43;59.86
15932;BME280;8065;49.520;11.284;2023-04-04T06:36:46;98361.53;;;4.17;59.75
15932;BME280;8065;49.520;11.284;2023-04-04T06:39:13;98361.13;;;4.46;59.47
15932;BME280;8065;49.520;11.284;2023-04-04T06:41:39;98367.97;;;4.42;57.89
15932;BME280;8065;49.520;11.284;2023-04-04T06:44:06;98364.41;;;4.68;58.26
15932;BME280;8065;49.520;11.284;2023-04-04T06:46:32;98366.41;;;4.46;57.47
15932;BME280;8065;49.520;11.284;2023-04-04T06:49:01;98366.25;;;4.68;58.20
15932;BME280;8065;49.520;11.284;2023-04-04T06:51:29;98368.44;;;4.91;57.55
15932;BME280;8065;49.520;11.284;2023-04-04T06:53:56;98367.19;;;5.09;57.86
15932;BME280;8065;49.520;11.284;2023-04-04T06:56:22;98360.84;;;5.10;57.75
15932;BME280;8065;49.520;11.284;2023-04-04T06:58:49;98370.63;;;5.14;58.01
15932;BME280;8065;49.520;11.284;2023-04-04T07:01:16;98367.72;;;5.11;57.69
15932;BME280;8065;49.520;11.284;2023-04-04T07:03:42;98362.19;;;5.22;57.96
15932;BME280;8065;49.520;11.284;2023-04-04T07:06:09;98366.16;;;5.45;57.77
15932;BME280;8065;49.520;11.284;2023-04-04T07:08:37;98372.47;;;5.39;56.76
15932;BME280;8065;49.520;11.284;2023-04-04T07:11:04;98360.91;;;5.55;57.10
15932;BME280;8065;49.520;11.284;2023-04-04T07:13:32;98369.59;;;5.51;56.84
15932;BME280;8065;49.520;11.284;2023-04-04T07:15:59;98362.50;;;5.77;56.66
15932;BME280;8065;49.520;11.284;2023-04-04T07:18:26;98366.72;;;5.83;55.97
15932;BME280;8065;49.520;11.284;2023-04-04T07:20:52;98365.94;;;5.93;55.36
15932;BME280;8065;49.520;11.284;2023-04-04T07:23:20;98357.47;;;5.80;55.01
15932;BME280;8065;49.520;11.284;2023-04-04T07:25:48;98364.59;;;5.75;54.69
15932;BME280;8065;49.520;11.284;2023-04-04T07:28:14;98365.09;;;6.07;55.72
15932;BME280;8065;49.520;11.284;2023-04-04T07:30:40;98367.19;;;6.31;55.73
15932;BME280;8065;49.520;11.284;2023-04-04T07:33:07;98364.50;;;6.46;55.03
15932;BME280;8065;49.520;11.284;2023-04-04T07:35:34;98370.00;;;6.60;55.43
15932;BME280;8065;49.520;11.284;2023-04-04T07:38:00;98361.81;;;6.66;54.99
15932;BME280;8065;49.520;11.284;2023-04-04T07:40:27;98364.97;;;6.68;54.40
15932;BME280;8065;49.520;11.284;2023-04-04T07:42:54;98359.47;;;6.49;53.50
15932;BME280;8065;49.520;11.284;2023-04-04T07:45:21;98369.19;;;6.64;53.79
15932;BME280;8065;49.520;11.284;2023-04-04T07:47:48;98364.00;;;6.39;54.31
15932;BME280;8065;49.520;11.284;2023-04-04T07:50:15;98369.38;;;5.98;54.28
15932;BME280;8065;49.520;11.284;2023-04-04T07:52:46;98367.72;;;6.28;54.02
15932;BME280;8065;49.520;11.284;2023-04-04T07:55:13;98366.13;;;6.37;54.10
15932;BME280;8065;49.520;11.284;2023-04-04T07:57:40;98365.81;;;6.53;54.17
15932;BME280;8065;49.520;11.284;2023-04-04T08:00:09;98364.00;;;6.34;53.35
15932;BME280;8065;49.520;11.284;2023-04-04T08:02:35;98368.84;;;6.01;53.97
15932;BME280;8065;49.520;11.284;2023-04-04T08:05:02;98377.75;;;6.20;53.88
15932;BME280;8065;49.520;11.284;2023-04-04T08:07:29;98375.09;;;6.36;54.09
15932;BME280;8065;49.520;11.284;2023-04-04T08:09:55;98363.38;;;6.72;53.66
15932;BME280;8065;49.520;11.284;2023-04-04T08:12:22;98370.31;;;6.43;52.74
15932;BME280;8065;49.520;11.284;2023-04-04T08:14:48;98362.34;;;6.58;51.98
15932;BME280;8065;49.520;11.284;2023-04-04T08:17:16;98365.94;;;6.87;52.05
15932;BME280;8065;49.520;11.284;2023-04-04T08:19:43;98361.41;;;6.08;49.84
15932;BME280;8065;49.520;11.284;2023-04-04T08:22:10;98358.72;;;6.39;51.07
15932;BME280;8065;49.520;11.284;2023-04-04T08:24:36;98362.03;;;6.75;49.74
15932;BME280;8065;49.520;11.284;2023-04-04T08:27:03;98361.44;;;6.88;48.68
15932;BME280;8065;49.520;11.284;2023-04-04T08:29:30;98360.28;;;6.50;48.52
15932;BME280;8065;49.520;11.284;2023-04-04T08:31:57;98364.19;;;6.63;49.14
15932;BME280;8065;49.520;11.284;2023-04-04T08:34:25;98355.03;;;6.30;48.41
15932;BME280;8065;49.520;11.284;2023-04-04T08:36:51;98356.34;;;6.32;49.75
15932;BME280;8065;49.520;11.284;2023-04-04T08:39:18;98357.66;;;6.45;50.06
15932;BME280;8065;49.520;11.284;2023-04-04T08:41:44;98361.53;;;6.68;49.79
15932;BME280;8065;49.520;11.284;2023-04-04T08:44:16;98354.56;;;6.12;48.92
15932;BME280;8065;49.520;11.284;2023-04-04T08:46:44;98348.66;;;6.46;48.75
15932;BME280;8065;49.520;11.284;2023-04-04T08:49:13;98353.84;;;6.76;48.46
15932;BME280;8065;49.520;11.284;2023-04-04T08:51:43;98351.72;;;6.78;47.65
15932;BME280;8065;49.520;11.284;2023-04-04T08:54:11;98352.88;;;6.52;48.70
15932;BME280;8065;49.520;11.284;2023-04-04T08:56:38;98349.97;;;7.08;47.85
15932;BME280;8065;49.520;11.284;2023-04-04T08:59:04;98349.69;;;6.60;48.29
15932;BME280;8065;49.520;11.284;2023-04-04T09:01:31;98350.75;;;6.59;48.08
15932;BME280;8065;49.520;11.284;2023-04-04T09:03:59;98352.75;;;6.82;48.37
15932;BME280;8065;49.520;11.284;2023-04-04T09:06:26;98352.63;;;7.03;47.79
15932;BME280;8065;49.520;11.284;2023-04-04T09:08:55;98355.16;;;6.79;47.70
15932;BME280;8065;49.520;11.284;2023-04-04T09:11:25;98358.09;;;6.72;48.11
15932;BME280;8065;49.520;11.284;2023-04-04T09:13:53;98359.53;;;6.99;47.92
15932;BME280;8065;49.520;11.284;2023-04-04T09:16:21;98362.81;;;6.75;48.25
15932;BME280;8065;49.520;11.284;2023-04-04T09:18:48;98362.84;;;6.70;47.97
15932;BME280;8065;49.520;11.284;2023-04-04T09:21:14;98358.59;;;6.74;48.14
15932;BME280;8065;49.520;11.284;2023-04-04T09:23:41;98358.47;;;6.95;47.74
15932;BME280;8065;49.520;11.284;2023-04-04T09:26:10;98356.97;;;6.88;47.28
15932;BME280;8065;49.520;11.284;2023-04-04T09:28:37;98357.00;;;6.78;47.70
15932;BME280;8065;49.520;11.284;2023-04-04T09:31:06;98360.66;;;6.87;48.42
15932;BME280;8065;49.520;11.284;2023-04-04T09:33:34;98358.31;;;7.25;48.26
15932;BME280;8065;49.520;11.284;2023-04-04T09:36:04;98360.91;;;7.35;47.97
15932;BME280;8065;49.520;11.284;2023-04-04T09:38:35;98363.19;;;7.03;48.19
15932;BME280;8065;49.520;11.284;2023-04-04T09:41:02;98367.31;;;6.75;48.69
15932;BME280;8065;49.520;11.284;2023-04-04T09:43:33;98370.13;;;6.94;47.84
15932;BME280;8065;49.520;11.284;2023-04-04T09:46:00;98360.59;;;6.98;48.60
15932;BME280;8065;49.520;11.284;2023-04-04T09:48:29;98363.22;;;6.98;48.46
15932;BME280;8065;49.520;11.284;2023-04-04T09:50:56;98362.81;;;6.75;48.93
15932;BME280;8065;49.520;11.284;2023-04-04T09:53:24;98364.19;;;6.63;48.36
15932;BME280;8065;49.520;11.284;2023-04-04T09:55:52;98359.53;;;6.99;48.74
15932;BME280;8065;49.520;11.284;2023-04-04T09:58:25;98359.97;;;6.62;48.19
15932;BME280;8065;49.520;11.284;2023-04-04T10:00:54;98349.03;;;6.88;47.56
15932;BME280;8065;49.520;11.284;2023-04-04T10:03:22;98356.16;;;7.32;47.33
15932;BME280;8065;49.520;11.284;2023-04-04T10:05:54;98351.13;;;7.70;47.47
15932;BME280;8065;49.520;11.284;2023-04-04T10:08:22;98349.72;;;8.06;47.62
15932;BME280;8065;49.520;11.284;2023-04-04T10:10:49;98349.63;;;8.16;47.16
15932;BME280;8065;49.520;11.284;2023-04-04T10:13:22;98349.88;;;8.68;46.37
15932;BME280;8065;49.520;11.284;2023-04-04T10:15:50;98338.25;;;8.87;47.36
15932;BME280;8065;49.520;11.284;2023-04-04T10:18:19;98345.41;;;9.06;46.69
15932;BME280;8065;49.520;11.284;2023-04-04T10:20:48;98335.09;;;9.74;45.23
15932;BME280;8065;49.520;11.284;2023-04-04T10:23:15;98329.06;;;9.69;43.91
15932;BME280;8065;49.520;11.284;2023-04-04T10:25:41;98328.94;;;9.60;45.37
15932;BME280;8065;49.520;11.284;2023-04-04T10:28:08;98329.09;;;10.70;44.08
15932;BME280;8065;49.520;11.284;2023-04-04T10:30:39;98329.69;;;10.80;43.78
15932;BME280;8065;49.520;11.284;2023-04-04T10:33:09;98321.16;;;10.29;43.07
15932;BME280;8065;49.520;11.284;2023-04-04T10:35:43;98319.06;;;10.67;43.65
15932;BME280;8065;49.520;11.284;2023-04-04T10:38:11;98328.88;;;10.11;42.08
15932;BME280;8065;49.520;11.284;2023-04-04T10:40:39;98324.25;;;10.03;43.02
15932;BME280;8065;49.520;11.284;2023-04-04T10:43:09;98332.88;;;9.95;45.00
15932;BME280;8065;49.520;11.284;2023-04-04T10:45:39;98314.72;;;10.16;44.14
15932;BME280;8065;49.520;11.284;2023-04-04T10:48:07;98321.22;;;10.65;42.88
15932;BME280;8065;49.520;11.284;2023-04-04T10:50:34;98318.63;;;10.87;42.19
15932;BME280;8065;49.520;11.284;2023-04-04T10:53:02;98312.66;;;10.54;43.09
15932;BME280;8065;49.520;11.284;2023-04-04T10:55:30;98324.75;;;10.05;43.79
15932;BME280;8065;49.520;11.284;2023-04-04T10:57:58;98326.56;;;10.37;43.05
15932;BME280;8065;49.520;11.284;2023-04-04T11:00:26;98323.38;;;10.90;42.90
15932;BME280;8065;49.520;11.284;2023-04-04T11:02:54;98314.75;;;11.29;42.36
15932;BME280;8065;49.520;11.284;2023-04-04T11:05:23;98315.91;;;10.51;42.19
15932;BME280;8065;49.520;11.284;2023-04-04T11:07:57;98308.50;;;11.25;42.62
15932;BME280;8065;49.520;11.284;2023-04-04T11:10:26;98304.41;;;11.95;41.62
15932;BME280;8065;49.520;11.284;2023-04-04T11:12:55;98304.31;;;11.77;40.19
15932;BME280;8065;49.520;11.284;2023-04-04T11:15:22;98300.97;;;11.72;39.60
15932;BME280;8065;49.520;11.284;2023-04-04T11:17:59;98307.28;;;11.09;39.82
15932;BME280;8065;49.520;11.284;2023-04-04T11:20:29;98302.66;;;11.01;40.35
15932;BME280;8065;49.520;11.284;2023-04-04T11:23:03;98296.84;;;10.22;41.46
15932;BME280;8065;49.520;11.284;2023-04-04T11:25:36;98292.06;;;10.73;41.56
15932;BME280;8065;49.520;11.284;2023-04-04T11:28:04;98286.72;;;11.45;41.13
15932;BME280;8065;49.520;11.284;2023-04-04T11:30:36;98289.66;;;10.99;41.11
15932;BME280;8065;49.520;11.284;2023-04-04T11:33:03;98288.78;;;10.27;41.89
15932;BME280;8065;49.520;11.284;2023-04-04T11:35:30;98283.66;;;10.94;41.37
15932;BME280;8065;49.520;11.284;2023-04-04T11:37:58;98283.81;;;11.33;41.78
15932;BME280;8065;49.520;11.284;2023-04-04T11:40:38;98275.88;;;12.35;41.21
15932;BME280;8065;49.520;11.284;2023-04-04T11:43:09;98280.34;;;12.65;40.92
15932;BME280;8065;49.520;11.284;2023-04-04T11:45:36;98284.28;;;12.20;41.92
15932;BME280;8065;49.520;11.284;2023-04-04T11:48:04;98283.09;;;12.34;41.29
15932;BME280;8065;49.520;11.284;2023-04-04T11:50:35;98289.41;;;12.47;41.90
15932;BME280;8065;49.520;11.284;2023-04-04T11:53:06;98279.03;;;12.37;41.40
15932;BME280;8065;49.520;11.284;2023-04-04T11:55:39;98273.41;;;11.99;41.07
15932;BME280;8065;49.520;11.284;2023-04-04T11:58:07;98275.59;;;11.97;41.45
15932;BME280;8065;49.520;11.284;2023-04-04T12:00:35;98268.41;;;11.75;41.34
15932;BME280;8065;49.520;11.284;2023-04-04T12:03:04;98276.47;;;10.94;43.35
15932;BME280;8065;49.520;11.284;2023-04-04T12:05:31;98277.00;;;10.82;42.99
15932;BME280;8065;49.520;11.284;2023-04-04T12:07:58;98274.59;;;10.95;42.55
15932;BME280;8065;49.520;11.284;2023-04-04T12:10:28;98279.00;;;10.63;42.47
15932;BME280;8065;49.520;11.284;2023-04-04T12:12:57;98275.97;;;10.01;43.18
15932;BME280;8065;49.520;11.284;2023-04-04T12:15:23;98276.16;;;10.46;43.64
15932;BME280;8065;49.520;11.284;2023-04-04T12:17:52;98275.19;;;10.42;42.35
15932;BME280;8065;49.520;11.284;2023-04-04T12:20:21;98275.16;;;10.69;42.47
15932;BME280;8065;49.520;11.284;2023-04-04T12:22:47;98281.94;;;9.93;41.82
15932;BME280;8065;49.520;11.284;2023-04-04T12:25:14;98274.38;;;10.55;40.82
15932;BME280;8065;49.520;11.284;2023-04-04T12:27:41;98277.91;;;9.82;41.56
15932;BME280;8065;49.520;11.284;2023-04-04T12:30:11;98271.56;;;10.88;42.05
15932;BME280;8065;49.520;11.284;2023-04-04T12:32:40;98271.31;;;10.75;42.41
15932;BME280;8065;49.520;11.284;2023-04-04T12:35:09;98283.75;;;10.11;42.60
15932;BME280;8065;49.520;11.284;2023-04-04T12:37:36;98261.31;;;10.95;41.55
15932;BME280;8065;49.520;11.284;2023-04-04T12:40:02;98268.88;;;10.51;41.36
15932;BME280;8065;49.520;11.284;2023-04-04T12:42:30;98268.47;;;10.58;42.03
15932;BME280;8065;49.520;11.284;2023-04-04T12:44:56;98261.59;;;10.43;41.54
15932;BME280;8065;49.520;11.284;2023-04-04T12:47:25;98260.34;;;10.91;41.62
15932;BME280;8065;49.520;11.284;2023-04-04T12:49:52;98258.59;;;11.08;42.44
15932;BME280;8065;49.520;11.284;2023-04-04T12:52:20;98242.72;;;11.17;41.83
15932;BME280;8065;49.520;11.284;2023-04-04T12:54:49;98254.66;;;11.28;41.40
15932;BME280;8065;49.520;11.284;2023-04-04T12:57:17;98246.41;;;11.61;41.30
15932;BME280;8065;49.520;11.284;2023-04-04T12:59:45;98243.13;;;11.86;40.69
15932;BME280;8065;49.520;11.284;2023-04-04T13:02:14;98251.84;;;11.78;40.26
15932;BME280;8065;49.520;11.284;2023-04-04T13:04:45;98239.34;;;12.35;40.19
15932;BME280;8065;49.520;11.284;2023-04-04T13:07:20;98233.44;;;12.47;39.29
15932;BME280;8065;49.520;11.284;2023-04-04T13:09:50;98231.94;;;12.15;39.09
15932;BME280;8065;49.520;11.284;2023-04-04T13:12:17;98238.13;;;12.41;39.34